Time;durP1;ratioP1;P1;durP2;ratioP2;P2;SDS_P1;SDS_P2;PMS_P1;PMS_P2;Temp;Humidity;BMP_temperature;BMP_pressure;BME280_temperature;BME280_humidity;BME280_pressure;Samples;Min_cycle;Max_cycle;Signal;HPM_P1;HPM_P2
2020/12/22 00:03:19;;;;;;;2.60;1.15;;;12.70;99.90;;;;;;10442902;28;20045;-51
2020/12/22 00:08:40;;;;;;;1.77;0.70;;;12.80;99.90;;;;;;10440289;28;20419;-52
2020/12/22 00:14:01;;;;;;;4.35;1.27;;;12.80;99.90;;;;;;10445518;28;20136;-52
2020/12/22 00:19:22;;;;;;;2.25;0.85;;;12.80;99.90;;;;;;10440153;28;20071;-52
2020/12/22 00:24:43;;;;;;;2.97;1.15;;;12.80;99.90;;;;;;10441197;28;20060;-54
2020/12/22 00:30:04;;;;;;;1.52;0.52;;;12.80;99.90;;;;;;10443291;28;20044;-52
2020/12/22 00:35:25;;;;;;;2.72;0.88;;;12.80;99.90;;;;;;10437269;28;20556;-52
2020/12/22 00:40:47;;;;;;;1.63;0.50;;;12.80;99.90;;;;;;10443079;28;20032;-53
2020/12/22 00:46:08;;;;;;;4.13;0.70;;;12.80;99.90;;;;;;10439149;28;20037;-52
2020/12/22 00:51:29;;;;;;;2.20;0.70;;;12.80;99.90;;;;;;10436588;28;20031;-52
2020/12/22 00:56:50;;;;;;;1.75;0.65;;;12.80;99.90;;;;;;10443623;28;20039;-52
2020/12/22 01:02:11;;;;;;;1.15;0.50;;;12.80;99.90;;;;;;10439285;28;20079;-53
2020/12/22 01:07:33;;;;;;;2.28;0.77;;;12.80;99.90;;;;;;10446335;28;20093;-53
2020/12/22 01:12:54;;;;;;;2.00;0.50;;;12.80;99.90;;;;;;10443616;28;20057;-53
2020/12/22 01:18:14;;;;;;;1.17;0.35;;;12.70;99.90;;;;;;10439911;28;20151;-53
2020/12/22 01:23:35;;;;;;;1.70;0.60;;;12.70;99.90;;;;;;10441738;28;20040;-53
2020/12/22 01:28:57;;;;;;;0.95;0.50;;;12.70;99.90;;;;;;10450621;28;20118;-52
2020/12/22 01:34:18;;;;;;;0.30;0.08;;;12.70;99.90;;;;;;10445969;28;20044;-51
2020/12/22 01:39:39;;;;;;;0.68;0.47;;;12.80;99.90;;;;;;10447018;28;20583;-52
2020/12/22 01:45:00;;;;;;;1.90;0.80;;;12.80;99.90;;;;;;10451865;28;20079;-52
2020/12/22 01:50:21;;;;;;;2.00;0.43;;;12.80;99.90;;;;;;10441633;28;20546;-52
2020/12/22 01:55:42;;;;;;;1.13;0.30;;;12.80;99.90;;;;;;10448125;28;20052;-51
2020/12/22 02:01:03;;;;;;;0.60;0.15;;;12.90;99.90;;;;;;10448756;28;20427;-52
2020/12/22 02:06:25;;;;;;;1.33;0.30;;;12.90;99.90;;;;;;10449751;28;21585;-52
2020/12/22 02:11:46;;;;;;;0.98;0.30;;;12.90;99.90;;;;;;10447503;28;20047;-53
2020/12/22 02:17:07;;;;;;;1.70;0.40;;;12.90;99.90;;;;;;10442859;28;20036;-52
2020/12/22 02:22:27;;;;;;;1.08;0.22;;;12.90;99.90;;;;;;10449385;28;20044;-54
2020/12/22 02:27:48;;;;;;;2.63;0.55;;;12.90;99.90;;;;;;10441614;28;20102;-53
2020/12/22 02:33:11;;;;;;;1.13;0.30;;;12.90;99.90;;;;;;10446288;28;20037;-53
2020/12/22 02:38:32;;;;;;;0.82;0.30;;;12.90;99.90;;;;;;10447242;28;20136;-53
2020/12/22 02:43:52;;;;;;;1.08;0.20;;;12.90;99.90;;;;;;10455193;28;20047;-54
2020/12/22 02:49:13;;;;;;;5.53;0.60;;;13.00;99.90;;;;;;10447530;28;20086;-54
2020/12/22 02:54:35;;;;;;;1.65;0.32;;;12.90;99.90;;;;;;10455367;28;20041;-54
2020/12/22 02:59:55;;;;;;;0.35;0.15;;;12.90;99.90;;;;;;10448012;28;20118;-54
2020/12/22 03:05:17;;;;;;;0.63;0.20;;;12.90;99.90;;;;;;10441980;28;20521;-55
2020/12/22 03:10:39;;;;;;;17.35;0.75;;;12.90;99.90;;;;;;10454337;28;20045;-55
2020/12/22 03:16:00;;;;;;;4.55;0.47;;;13.00;99.90;;;;;;10449141;28;20045;-55
2020/12/22 03:21:21;;;;;;;1.65;0.50;;;12.90;99.90;;;;;;10443078;28;20045;-55
2020/12/22 03:26:42;;;;;;;0.70;0.40;;;13.00;99.90;;;;;;10447012;28;20045;-55
2020/12/22 03:32:03;;;;;;;1.50;0.40;;;13.00;99.90;;;;;;10448876;28;20045;-55
2020/12/22 03:37:24;;;;;;;1.05;0.40;;;13.00;99.90;;;;;;10434795;28;20053;-55
2020/12/22 03:42:45;;;;;;;5.10;0.38;;;13.00;99.90;;;;;;10444758;28;20064;-55
2020/12/22 03:48:06;;;;;;;1.45;0.60;;;12.90;99.90;;;;;;10443025;28;20090;-55
2020/12/22 03:53:27;;;;;;;0.47;0.20;;;12.90;99.90;;;;;;10444368;28;20040;-55
2020/12/22 03:58:48;;;;;;;2.92;0.28;;;13.00;99.90;;;;;;10447177;28;20079;-55
2020/12/22 04:04:09;;;;;;;2.05;0.43;;;12.90;99.90;;;;;;10444297;28;20031;-55
2020/12/22 04:09:30;;;;;;;3.70;0.52;;;13.00;99.90;;;;;;10445720;28;20049;-56
2020/12/22 04:14:51;;;;;;;0.93;0.15;;;13.00;99.90;;;;;;10444641;28;20051;-56
2020/12/22 04:20:12;;;;;;;0.50;0.17;;;12.90;99.90;;;;;;10441809;28;20033;-55
2020/12/22 04:25:33;;;;;;;2.03;0.40;;;13.00;99.90;;;;;;10443253;28;20389;-55
2020/12/22 04:30:54;;;;;;;2.00;0.20;;;13.00;99.90;;;;;;10437033;28;20751;-55
2020/12/22 04:36:15;;;;;;;2.55;0.20;;;13.00;99.90;;;;;;10445821;28;20041;-55
2020/12/22 04:41:37;;;;;;;1.33;0.17;;;13.00;99.90;;;;;;10443037;28;20060;-55
2020/12/22 04:46:59;;;;;;;3.33;0.55;;;13.10;99.90;;;;;;10443406;28;20033;-55
2020/12/22 04:52:22;;;;;;;1.08;0.90;;;13.00;99.90;;;;;;10438336;28;20049;-55
2020/12/22 04:57:48;;;;;;;2.40;0.25;;;13.00;99.90;;;;;;10440274;28;20045;-55
2020/12/22 05:03:11;;;;;;;2.92;0.30;;;13.00;99.90;;;;;;10440704;28;20515;-58
2020/12/22 05:08:32;;;;;;;4.78;0.65;;;13.00;99.90;;;;;;10436535;28;20036;-58
2020/12/22 05:13:53;;;;;;;0.77;0.20;;;13.00;99.90;;;;;;10436791;28;20052;-58
2020/12/22 05:19:18;;;;;;;1.05;0.25;;;13.00;99.90;;;;;;10440762;28;20415;-58
2020/12/22 05:24:40;;;;;;;0.55;0.20;;;12.90;99.90;;;;;;10439885;28;20037;-57
2020/12/22 05:30:04;;;;;;;0.60;0.43;;;13.00;99.90;;;;;;10440470;28;20037;-57
2020/12/22 05:35:25;;;;;;;2.15;1.50;;;13.10;99.90;;;;;;10443829;28;20033;-58
2020/12/22 05:40:46;;;;;;;2.92;0.20;;;13.00;99.90;;;;;;10448806;28;20047;-57
2020/12/22 05:46:08;;;;;;;1.88;0.60;;;12.90;99.90;;;;;;10443016;28;20035;-58
2020/12/22 05:51:30;;;;;;;4.30;0.55;;;12.90;99.90;;;;;;10439977;28;20029;-58
2020/12/22 05:57:04;;;;;;;3.60;0.63;;;12.90;99.90;;;;;;10440046;28;20404;-55
2020/12/22 06:02:30;;;;;;;1.33;0.70;;;13.00;99.90;;;;;;10439338;28;20106;-55
2020/12/22 06:07:51;;;;;;;0.98;0.40;;;13.00;99.90;;;;;;10438191;28;20128;-54
2020/12/22 06:13:12;;;;;;;3.65;0.68;;;13.00;99.90;;;;;;10434984;28;20036;-54
2020/12/22 06:18:33;;;;;;;1.52;1.05;;;13.00;99.90;;;;;;10451019;28;20389;-55
2020/12/22 06:23:55;;;;;;;1.10;0.20;;;13.00;99.90;;;;;;10450227;28;20040;-57
2020/12/22 06:29:25;;;;;;;4.20;0.80;;;13.00;99.90;;;;;;10436494;28;20119;-57
2020/12/22 06:34:47;;;;;;;2.20;0.60;;;13.00;99.90;;;;;;10441210;28;20182;-57
2020/12/22 06:40:08;;;;;;;1.77;0.65;;;12.90;99.90;;;;;;10450455;28;20094;-57
2020/12/22 06:45:35;;;;;;;0.35;0.13;;;12.90;99.90;;;;;;10439240;28;21002;-57
2020/12/22 06:50:56;;;;;;;3.92;0.50;;;12.90;99.90;;;;;;10443553;28;20094;-54
2020/12/22 06:56:37;;;;;;;2.58;0.60;;;12.90;99.90;;;;;;10445531;28;20048;-54
2020/12/22 07:01:58;;;;;;;0.63;0.52;;;12.90;99.90;;;;;;10444715;28;20032;-54
2020/12/22 07:07:19;;;;;;;10.05;1.27;;;12.90;99.90;;;;;;10444365;28;21057;-54
2020/12/22 07:12:40;;;;;;;2.83;0.43;;;12.80;99.90;;;;;;10446857;28;20463;-54
2020/12/22 07:18:07;;;;;;;1.00;0.17;;;12.70;99.90;;;;;;10442135;28;20044;-54
2020/12/22 07:23:28;;;;;;;1.48;0.57;;;12.60;99.90;;;;;;10441362;28;20037;-55
2020/12/22 07:28:51;;;;;;;3.13;0.40;;;12.50;99.90;;;;;;10443031;28;20121;-54
2020/12/22 07:34:13;;;;;;;0.77;0.40;;;12.40;99.90;;;;;;10444951;28;20044;-54
2020/12/22 07:39:34;;;;;;;2.95;1.00;;;12.40;99.90;;;;;;10443491;28;20270;-54
2020/12/22 07:45:07;;;;;;;1.75;0.30;;;12.40;99.90;;;;;;10444476;28;20029;-55
2020/12/22 07:50:28;;;;;;;6.32;0.40;;;12.40;99.90;;;;;;10446873;28;20068;-55
2020/12/22 07:55:49;;;;;;;7.75;0.95;;;12.40;99.90;;;;;;10450816;28;20044;-56
2020/12/22 08:01:10;;;;;;;2.65;0.60;;;12.50;99.90;;;;;;10449478;28;20033;-55
2020/12/22 08:06:30;;;;;;;1.98;0.60;;;12.50;99.90;;;;;;10449490;28;20032;-55
2020/12/22 08:11:58;;;;;;;1.13;0.77;;;12.60;99.90;;;;;;10448651;28;20033;-55
2020/12/22 08:17:20;;;;;;;9.55;1.58;;;12.50;99.90;;;;;;10443597;28;20047;-55
2020/12/22 08:22:42;;;;;;;5.03;0.45;;;12.30;99.90;;;;;;10445591;28;20036;-55
2020/12/22 08:28:03;;;;;;;10.07;0.93;;;12.20;99.90;;;;;;10448212;28;20599;-55
2020/12/22 08:33:24;;;;;;;2.40;1.08;;;12.20;99.90;;;;;;10445799;28;20480;-55
2020/12/22 08:38:45;;;;;;;6.55;0.77;;;12.10;99.90;;;;;;10407297;28;20397;-55
2020/12/22 08:44:06;;;;;;;2.70;0.85;;;12.10;99.90;;;;;;10389125;28;20120;-55
2020/12/22 08:49:32;;;;;;;2.35;0.40;;;12.10;99.90;;;;;;10406743;28;20745;-55
2020/12/22 08:55:01;;;;;;;7.53;1.77;;;12.10;99.90;;;;;;10407480;28;20149;-55
2020/12/22 09:00:26;;;;;;;1.52;0.77;;;12.10;99.90;;;;;;10446203;28;20063;-55
2020/12/22 09:05:51;;;;;;;1.73;0.55;;;12.10;99.90;;;;;;10446857;28;20024;-55
2020/12/22 09:11:19;;;;;;;1.38;0.28;;;12.20;99.90;;;;;;10446708;28;20095;-55
2020/12/22 09:16:50;;;;;;;4.55;0.47;;;12.00;99.90;;;;;;10448503;28;20047;-55
2020/12/22 09:22:15;;;;;;;4.68;0.10;;;11.90;99.90;;;;;;10447927;28;20084;-54
2020/12/22 09:27:39;;;;;;;1.70;0.40;;;11.90;99.90;;;;;;10447018;28;20424;-54
2020/12/22 09:33:00;;;;;;;6.10;0.38;;;11.90;99.90;;;;;;10445524;28;20091;-54
2020/12/22 09:38:21;;;;;;;6.18;0.60;;;11.70;99.90;;;;;;10425053;28;20538;-54
2020/12/22 09:43:42;;;;;;;0.15;0.05;;;11.60;99.90;;;;;;10447209;28;20040;-54
2020/12/22 09:49:03;;;;;;;2.13;0.38;;;11.50;99.90;;;;;;10448924;28;20045;-55
2020/12/22 09:54:25;;;;;;;0.85;0.25;;;11.50;99.90;;;;;;10451773;28;20032;-55
2020/12/22 09:59:46;;;;;;;6.30;0.88;;;11.30;99.90;;;;;;10449324;28;20136;-57
2020/12/22 10:05:07;;;;;;;5.40;0.47;;;11.20;99.90;;;;;;10454247;28;20028;-55
2020/12/22 10:10:28;;;;;;;1.17;0.70;;;11.20;99.90;;;;;;10446333;28;20106;-55
2020/12/22 10:15:49;;;;;;;1.20;0.30;;;11.00;99.90;;;;;;10427290;28;20042;-54
2020/12/22 10:21:12;;;;;;;1.58;0.50;;;10.90;99.90;;;;;;10448648;28;20052;-54
2020/12/22 10:26:33;;;;;;;2.72;0.93;;;11.00;99.90;;;;;;10448681;28;20047;-55
2020/12/22 10:31:55;;;;;;;1.88;0.85;;;10.90;99.90;;;;;;10446021;28;20043;-54
2020/12/22 10:37:16;;;;;;;2.85;0.82;;;10.80;99.90;;;;;;10446428;28;20052;-54
2020/12/22 10:42:37;;;;;;;1.50;0.60;;;10.80;99.90;;;;;;10449220;28;20091;-54
2020/12/22 10:47:58;;;;;;;3.20;1.15;;;10.80;99.90;;;;;;10447594;28;20175;-54
2020/12/22 10:53:19;;;;;;;3.55;0.80;;;10.70;99.90;;;;;;10448799;28;20045;-54
2020/12/22 10:58:44;;;;;;;2.78;0.65;;;10.70;99.90;;;;;;10445312;28;20538;-54
2020/12/22 11:04:05;;;;;;;2.53;0.55;;;10.70;99.90;;;;;;10435642;28;20036;-54
2020/12/22 11:09:26;;;;;;;3.58;0.98;;;10.80;99.90;;;;;;10429930;28;20469;-54
2020/12/22 11:14:47;;;;;;;2.00;0.75;;;10.80;99.90;;;;;;10446517;28;20532;-56
2020/12/22 11:20:08;;;;;;;1.73;0.60;;;10.70;99.90;;;;;;10437360;28;20040;-54
2020/12/22 11:25:29;;;;;;;2.80;1.17;;;10.80;99.90;;;;;;10452536;28;20040;-54
2020/12/22 11:30:50;;;;;;;2.00;0.90;;;10.80;99.90;;;;;;10449830;28;20044;-54
2020/12/22 11:36:14;;;;;;;2.05;0.68;;;10.70;99.90;;;;;;10451352;28;20329;-54
2020/12/22 11:41:35;;;;;;;1.45;0.60;;;10.80;99.90;;;;;;10439812;28;20037;-54
2020/12/22 11:46:56;;;;;;;1.70;0.82;;;10.70;99.90;;;;;;10450036;28;20075;-55
2020/12/22 11:52:18;;;;;;;1.35;0.65;;;10.80;99.90;;;;;;10449630;28;20200;-56
2020/12/22 11:57:39;;;;;;;2.40;1.10;;;10.70;99.90;;;;;;10437478;28;20080;-56
2020/12/22 12:03:00;;;;;;;1.95;0.80;;;10.60;99.90;;;;;;10451508;28;20047;-57
2020/12/22 12:08:20;;;;;;;2.00;0.60;;;10.70;99.90;;;;;;10447705;28;20060;-56
2020/12/22 12:13:42;;;;;;;3.60;1.20;;;10.80;99.90;;;;;;10447282;28;20033;-56
2020/12/22 12:19:02;;;;;;;2.67;0.60;;;10.80;99.90;;;;;;10448884;28;20053;-56
2020/12/22 12:24:23;;;;;;;5.18;0.75;;;10.90;99.90;;;;;;10436241;28;20032;-56
2020/12/22 12:29:44;;;;;;;1.23;0.55;;;10.90;99.90;;;;;;10433276;28;20041;-56
2020/12/22 12:35:05;;;;;;;1.33;0.50;;;10.90;99.90;;;;;;10433695;28;20052;-56
2020/12/22 12:40:26;;;;;;;1.85;0.50;;;10.90;99.90;;;;;;10441134;28;20029;-56
2020/12/22 12:45:47;;;;;;;2.22;0.80;;;10.80;99.90;;;;;;10437761;28;20037;-56
2020/12/22 12:51:08;;;;;;;0.90;0.43;;;11.00;99.90;;;;;;10430980;28;20790;-56
2020/12/22 12:56:29;;;;;;;1.75;0.65;;;11.00;99.90;;;;;;10435445;28;20069;-56
2020/12/22 13:01:50;;;;;;;7.15;0.70;;;11.00;99.90;;;;;;10433048;28;20033;-56
2020/12/22 13:07:12;;;;;;;1.83;0.70;;;10.90;99.90;;;;;;10432003;28;20037;-56
2020/12/22 13:12:33;;;;;;;7.18;1.50;;;11.00;99.90;;;;;;10435510;28;20025;-56
2020/12/22 13:17:54;;;;;;;2.15;0.80;;;11.60;99.90;;;;;;10434632;28;20399;-56
2020/12/22 13:23:15;;;;;;;1.98;0.60;;;12.10;99.90;;;;;;10441119;28;20037;-56
2020/12/22 13:28:36;;;;;;;2.85;0.70;;;12.00;99.90;;;;;;10431740;28;20358;-56
2020/12/22 13:33:57;;;;;;;2.83;0.60;;;11.60;99.90;;;;;;10424609;28;20128;-56
2020/12/22 13:39:22;;;;;;;1.42;0.38;;;11.40;99.90;;;;;;10434544;28;20076;-56
2020/12/22 13:44:43;;;;;;;1.20;0.30;;;11.10;99.90;;;;;;10442157;28;20036;-55
2020/12/22 13:50:04;;;;;;;1.15;0.57;;;11.00;99.90;;;;;;10440059;28;21566;-54
2020/12/22 13:55:25;;;;;;;0.85;0.15;;;10.90;99.90;;;;;;10424684;28;20094;-54
2020/12/22 14:00:46;;;;;;;1.55;0.38;;;10.80;99.90;;;;;;10443206;28;20059;-54
2020/12/22 14:06:07;;;;;;;2.00;1.27;;;10.70;99.90;;;;;;10449144;28;20047;-54
2020/12/22 14:11:28;;;;;;;0.75;0.30;;;10.60;99.90;;;;;;10431736;28;20037;-54
2020/12/22 14:16:52;;;;;;;1.90;0.45;;;10.60;99.90;;;;;;10441775;28;20044;-54
2020/12/22 14:22:13;;;;;;;2.88;1.50;;;10.60;99.90;;;;;;10431184;28;20048;-54
2020/12/22 14:27:34;;;;;;;2.72;0.73;;;10.50;99.90;;;;;;10430457;28;20040;-54
2020/12/22 14:32:55;;;;;;;1.05;0.22;;;10.50;99.90;;;;;;10444986;28;20040;-54
2020/12/22 14:38:16;;;;;;;2.05;0.30;;;10.40;99.90;;;;;;10438068;28;20171;-54
2020/12/22 14:43:37;;;;;;;0.63;0.20;;;10.40;99.90;;;;;;10431103;28;20036;-54
2020/12/22 14:48:58;;;;;;;0.35;0.13;;;10.30;99.90;;;;;;10434203;28;20049;-54
2020/12/22 14:54:23;;;;;;;2.70;0.73;;;10.30;99.90;;;;;;10431095;28;20125;-54
2020/12/22 14:59:44;;;;;;;1.45;0.50;;;10.30;99.90;;;;;;10441194;28;20242;-54
2020/12/22 15:05:04;;;;;;;0.70;0.22;;;10.20;99.90;;;;;;10444044;28;20102;-54
2020/12/22 15:10:25;;;;;;;1.40;0.38;;;10.20;99.90;;;;;;10439471;28;20041;-54
2020/12/22 15:15:49;;;;;;;0.63;0.30;;;10.20;99.90;;;;;;10419746;28;20125;-54
2020/12/22 15:21:10;;;;;;;2.15;0.38;;;10.10;99.90;;;;;;10447892;28;20040;-54
2020/12/22 15:26:31;;;;;;;0.85;0.50;;;10.00;99.90;;;;;;10438941;28;20060;-54
2020/12/22 15:31:56;;;;;;;0.68;0.35;;;9.90;99.90;;;;;;10434478;28;20048;-54
2020/12/22 15:37:17;;;;;;;1.40;0.55;;;9.90;99.90;;;;;;10447597;28;20049;-54
2020/12/22 15:42:41;;;;;;;3.00;0.65;;;9.90;99.90;;;;;;10448506;28;20087;-54
2020/12/22 15:48:02;;;;;;;1.08;0.38;;;9.80;99.90;;;;;;10443183;28;20032;-55
2020/12/22 15:53:23;;;;;;;1.60;0.77;;;9.80;99.90;;;;;;10447111;28;20052;-54
2020/12/22 15:58:44;;;;;;;1.95;0.63;;;9.80;99.90;;;;;;10439925;28;20088;-54
2020/12/22 16:04:09;;;;;;;1.13;0.50;;;9.70;99.90;;;;;;10433596;28;20526;-55
2020/12/22 16:09:30;;;;;;;1.45;0.40;;;9.60;99.90;;;;;;10434112;28;20041;-54
2020/12/22 16:14:51;;;;;;;1.45;0.70;;;9.50;99.90;;;;;;10442460;28;20083;-54
2020/12/22 16:20:12;;;;;;;7.90;0.82;;;9.60;99.90;;;;;;10447730;28;20550;-54
2020/12/22 16:25:34;;;;;;;2.15;1.13;;;9.50;99.90;;;;;;10442151;28;20029;-54
2020/12/22 16:30:59;;;;;;;1.50;0.45;;;9.50;99.90;;;;;;10452064;28;20515;-54
2020/12/22 16:36:21;;;;;;;1.30;0.50;;;9.60;99.90;;;;;;10437326;28;20099;-54
2020/12/22 16:41:42;;;;;;;3.55;0.55;;;9.60;99.90;;;;;;10441538;28;20079;-54
2020/12/22 16:47:03;;;;;;;1.65;0.70;;;9.60;99.90;;;;;;10450358;28;20052;-54
2020/12/22 16:52:24;;;;;;;1.30;0.57;;;9.70;99.90;;;;;;10439926;28;20063;-54
2020/12/22 16:57:45;;;;;;;3.40;0.77;;;9.70;99.90;;;;;;10434774;28;20427;-54
2020/12/22 17:03:06;;;;;;;2.17;1.30;;;9.60;99.90;;;;;;10445352;28;20040;-54
2020/12/22 17:08:27;;;;;;;3.05;0.70;;;9.60;99.90;;;;;;10432851;28;20681;-54
2020/12/22 17:13:48;;;;;;;2.08;0.70;;;9.60;99.90;;;;;;10447778;28;20045;-54
2020/12/22 17:19:08;;;;;;;4.10;0.98;;;9.70;99.90;;;;;;10446672;28;20106;-54
2020/12/22 17:24:30;;;;;;;3.15;1.05;;;9.70;99.90;;;;;;10441313;28;20037;-54
2020/12/22 17:29:51;;;;;;;3.90;1.15;;;9.70;99.90;;;;;;10441878;28;20078;-54
2020/12/22 17:35:12;;;;;;;2.10;0.65;;;9.70;99.90;;;;;;10443559;28;20037;-54
2020/12/22 17:40:33;;;;;;;2.25;0.85;;;9.60;99.90;;;;;;10444668;28;20048;-54
2020/12/22 17:45:54;;;;;;;2.40;1.20;;;9.60;99.90;;;;;;10427332;28;20052;-54
2020/12/22 17:51:15;;;;;;;3.42;0.95;;;9.60;99.90;;;;;;10448650;28;20877;-55
2020/12/22 17:56:36;;;;;;;2.72;0.85;;;9.60;99.90;;;;;;10446023;28;20127;-54
2020/12/22 18:02:00;;;;;;;1.98;1.15;;;9.60;99.90;;;;;;10446832;28;20039;-54
2020/12/22 18:07:21;;;;;;;3.47;1.50;;;9.70;99.90;;;;;;10445610;28;20055;-54
2020/12/22 18:12:42;;;;;;;4.57;1.13;;;9.70;99.90;;;;;;10444631;28;20055;-54
2020/12/22 18:18:03;;;;;;;3.22;1.00;;;9.80;99.90;;;;;;10449595;28;20047;-54
2020/12/22 18:23:24;;;;;;;4.03;1.23;;;9.60;99.90;;;;;;10448818;28;20047;-54
2020/12/22 18:28:44;;;;;;;3.45;1.38;;;9.70;99.90;;;;;;10438704;28;20037;-54
2020/12/22 18:34:05;;;;;;;1.92;0.93;;;9.70;99.90;;;;;;10455046;28;20044;-54
2020/12/22 18:39:26;;;;;;;2.72;1.20;;;9.70;99.90;;;;;;10438045;28;20041;-54
2020/12/22 18:44:47;;;;;;;3.08;1.05;;;9.60;99.90;;;;;;10453971;28;20045;-54
2020/12/22 18:50:09;;;;;;;4.32;1.80;;;9.60;99.90;;;;;;10449384;28;20460;-54
2020/12/22 18:55:30;;;;;;;2.72;0.90;;;9.70;99.90;;;;;;10451167;28;20044;-54
2020/12/22 19:00:51;;;;;;;7.70;0.95;;;9.70;99.90;;;;;;10446504;28;20120;-54
2020/12/22 19:06:12;;;;;;;4.05;1.65;;;9.70;99.90;;;;;;10452407;28;20050;-54
2020/12/22 19:11:33;;;;;;;3.00;1.15;;;9.70;99.90;;;;;;10447182;28;20047;-54
2020/12/22 19:16:54;;;;;;;5.88;2.47;;;9.70;99.90;;;;;;10428120;28;20471;-54
2020/12/22 19:22:15;;;;;;;5.70;2.17;;;9.70;99.90;;;;;;10431128;28;20047;-54
2020/12/22 19:27:36;;;;;;;5.10;2.17;;;9.70;99.90;;;;;;10439820;28;20037;-54
2020/12/22 19:32:57;;;;;;;6.47;1.98;;;9.50;99.90;;;;;;10442720;28;20045;-54
2020/12/22 19:38:19;;;;;;;3.00;1.88;;;9.60;99.90;;;;;;10411710;28;20069;-54
2020/12/22 19:43:40;;;;;;;6.72;2.25;;;9.60;99.90;;;;;;10444751;28;20040;-54
2020/12/22 19:49:01;;;;;;;5.65;2.33;;;9.60;99.90;;;;;;10439977;28;20135;-54
2020/12/22 19:54:22;;;;;;;8.50;2.72;;;9.50;99.90;;;;;;10439259;28;20572;-54
2020/12/22 19:59:43;;;;;;;3.90;2.00;;;9.50;99.90;;;;;;10423916;28;20045;-53
2020/12/22 20:05:05;;;;;;;5.75;2.22;;;9.50;99.90;;;;;;10444000;28;20355;-54
2020/12/22 20:10:26;;;;;;;6.20;3.30;;;9.50;99.90;;;;;;10441830;28;20044;-54
2020/12/22 20:15:47;;;;;;;4.53;2.38;;;9.40;99.90;;;;;;10427562;28;20037;-54
2020/12/22 20:21:09;;;;;;;8.80;3.95;;;9.40;99.90;;;;;;10427273;28;20040;-54
2020/12/22 20:26:30;;;;;;;9.00;2.83;;;9.30;99.90;;;;;;10441018;28;20059;-54
2020/12/22 20:31:51;;;;;;;8.68;2.60;;;9.20;99.90;;;;;;10443358;28;20447;-54
2020/12/22 20:37:12;;;;;;;7.25;2.58;;;9.20;99.90;;;;;;10428518;28;20127;-54
2020/12/22 20:42:34;;;;;;;11.43;4.03;;;9.20;99.90;;;;;;10441753;28;20184;-54
2020/12/22 20:47:55;;;;;;;6.10;2.53;;;9.30;99.90;;;;;;10428182;28;20059;-54
2020/12/22 20:53:17;;;;;;;6.10;2.75;;;9.30;99.90;;;;;;10428275;28;20074;-54
2020/12/22 20:58:38;;;;;;;11.20;4.53;;;9.40;99.90;;;;;;10404811;28;20076;-54
2020/12/22 21:03:58;;;;;;;6.97;3.03;;;9.40;99.90;;;;;;10437352;28;20050;-54
2020/12/22 21:09:19;;;;;;;7.63;3.47;;;9.40;99.90;;;;;;10436019;28;20068;-54
2020/12/22 21:14:40;;;;;;;9.25;4.32;;;9.40;99.90;;;;;;10435760;28;20040;-54
2020/12/22 21:20:02;;;;;;;7.82;3.35;;;9.40;99.90;;;;;;10429383;28;20040;-54
2020/12/22 21:25:23;;;;;;;7.40;3.40;;;9.40;99.90;;;;;;10427976;28;20040;-54
2020/12/22 21:30:44;;;;;;;6.53;2.58;;;9.40;99.90;;;;;;10432734;28;20774;-54
2020/12/22 21:36:09;;;;;;;8.77;3.30;;;9.50;99.90;;;;;;10429121;28;20198;-54
2020/12/22 21:41:30;;;;;;;7.57;2.88;;;9.50;99.90;;;;;;10441627;28;20693;-53
2020/12/22 21:46:50;;;;;;;7.22;2.65;;;9.50;99.90;;;;;;10445405;28;20507;-54
2020/12/22 21:52:11;;;;;;;8.88;2.85;;;9.50;99.90;;;;;;10447777;28;20036;-54
2020/12/22 21:57:32;;;;;;;5.47;1.92;;;9.50;99.90;;;;;;10441370;28;20052;-54
2020/12/22 22:02:55;;;;;;;12.55;3.63;;;9.50;99.90;;;;;;10441685;28;20036;-54
2020/12/22 22:08:16;;;;;;;9.18;2.95;;;9.50;99.90;;;;;;10444439;28;20049;-54
2020/12/22 22:13:38;;;;;;;7.85;4.25;;;9.50;99.90;;;;;;10444165;28;20037;-54
2020/12/22 22:18:59;;;;;;;7.10;2.78;;;9.50;99.90;;;;;;10437017;28;20542;-54
2020/12/22 22:24:21;;;;;;;8.50;4.35;;;9.50;99.90;;;;;;10443477;28;20499;-54
2020/12/22 22:29:42;;;;;;;7.35;2.83;;;9.50;99.90;;;;;;10445085;28;20550;-54
2020/12/22 22:35:04;;;;;;;6.82;2.78;;;9.60;99.90;;;;;;10446820;28;20095;-54
2020/12/22 22:40:25;;;;;;;8.45;3.13;;;9.60;99.90;;;;;;10444700;28;20110;-54
2020/12/22 22:45:46;;;;;;;6.50;2.80;;;9.60;99.90;;;;;;10444550;28;20471;-54
2020/12/22 22:51:10;;;;;;;10.90;3.22;;;9.60;99.90;;;;;;10431919;28;20071;-54
2020/12/22 22:56:31;;;;;;;6.50;2.78;;;9.60;99.90;;;;;;10450381;28;20049;-54
2020/12/22 23:01:52;;;;;;;10.50;3.58;;;9.60;99.90;;;;;;10440198;28;20056;-54
2020/12/22 23:07:13;;;;;;;9.50;3.70;;;9.60;99.90;;;;;;10448821;28;20043;-54
2020/12/22 23:12:35;;;;;;;7.18;3.53;;;9.60;99.90;;;;;;10441274;28;20136;-54
2020/12/22 23:17:56;;;;;;;8.77;3.28;;;9.60;99.90;;;;;;10447163;28;20043;-54
2020/12/22 23:23:17;;;;;;;10.95;3.88;;;9.60;99.90;;;;;;10445189;28;20033;-54
2020/12/22 23:28:38;;;;;;;9.27;3.40;;;9.50;99.90;;;;;;10448259;28;20048;-54
2020/12/22 23:33:59;;;;;;;7.60;3.35;;;9.60;99.90;;;;;;10446373;28;20064;-53
2020/12/22 23:39:20;;;;;;;8.98;3.40;;;9.50;99.90;;;;;;10426869;28;20488;-54
2020/12/22 23:44:41;;;;;;;11.70;3.88;;;9.60;99.90;;;;;;10426008;28;20033;-54
2020/12/22 23:50:03;;;;;;;9.02;3.72;;;9.50;99.90;;;;;;10442907;28;20078;-53
2020/12/22 23:55:24;;;;;;;9.10;3.20;;;9.50;99.90;;;;;;10445349;28;20389;-54
